sensor_id;sensor_type;location;lat;lon;timestamp;temperature;humidity
4701;DHT22;8724;51.272;6.554;2022-11-20T00:01:37;8.00;99.90
4701;DHT22;8724;51.272;6.554;2022-11-20T00:04:06;8.00;99.90
4701;DHT22;8724;51.272;6.554;2022-11-20T00:06:34;8.00;99.90
4701;DHT22;8724;51.272;6.554;2022-11-20T00:09:02;8.00;99.90
4701;DHT22;8724;51.272;6.554;2022-11-20T00:11:32;8.00;99.90
4701;DHT22;8724;51.272;6.554;2022-11-20T00:14:01;8.00;99.90
4701;DHT22;8724;51.272;6.554;2022-11-20T00:16:31;8.00;99.90
4701;DHT22;8724;51.272;6.554;2022-11-20T00:19:01;8.00;99.90
4701;DHT22;8724;51.272;6.554;2022-11-20T00:21:30;8.00;99.90
4701;DHT22;8724;51.272;6.554;2022-11-20T00:24:00;8.00;99.90
4701;DHT22;8724;51.272;6.554;2022-11-20T00:26:28;8.30;99.90
4701;DHT22;8724;51.272;6.554;2022-11-20T00:28:58;8.00;99.90
4701;DHT22;8724;51.272;6.554;2022-11-20T00:31:27;8.00;99.90
4701;DHT22;8724;51.272;6.554;2022-11-20T00:33:56;8.00;99.90
4701;DHT22;8724;51.272;6.554;2022-11-20T00:36:28;7.90;99.90
4701;DHT22;8724;51.272;6.554;2022-11-20T00:38:57;7.90;99.90
4701;DHT22;8724;51.272;6.554;2022-11-20T00:41:28;7.90;99.90
4701;DHT22;8724;51.272;6.554;2022-11-20T00:43:57;7.90;99.90
4701;DHT22;8724;51.272;6.554;2022-11-20T00:46:26;7.90;99.90
4701;DHT22;8724;51.272;6.554;2022-11-20T00:48:55;7.90;99.90
4701;DHT22;8724;51.272;6.554;2022-11-20T00:51:26;7.90;99.90
4701;DHT22;8724;51.272;6.554;2022-11-20T00:53:55;7.90;99.90
4701;DHT22;8724;51.272;6.554;2022-11-20T00:56:27;7.90;99.90
4701;DHT22;8724;51.272;6.554;2022-11-20T00:58:55;7.90;99.90
4701;DHT22;8724;51.272;6.554;2022-11-20T01:01:27;7.90;99.90
4701;DHT22;8724;51.272;6.554;2022-11-20T01:03:57;7.90;99.90
4701;DHT22;8724;51.272;6.554;2022-11-20T01:06:31;7.90;99.90
4701;DHT22;8724;51.272;6.554;2022-11-20T01:09:02;7.90;99.90
4701;DHT22;8724;51.272;6.554;2022-11-20T01:11:31;7.90;99.90
4701;DHT22;8724;51.272;6.554;2022-11-20T01:14:02;7.90;99.90
4701;DHT22;8724;51.272;6.554;2022-11-20T01:16:32;7.90;99.90
4701;DHT22;8724;51.272;6.554;2022-11-20T01:19:03;7.90;99.90
4701;DHT22;8724;51.272;6.554;2022-11-20T01:21:35;7.90;99.90
4701;DHT22;8724;51.272;6.554;2022-11-20T01:24:05;7.90;99.90
4701;DHT22;8724;51.272;6.554;2022-11-20T01:26:36;7.90;99.90
4701;DHT22;8724;51.272;6.554;2022-11-20T01:29:05;7.90;99.90
4701;DHT22;8724;51.272;6.554;2022-11-20T01:31:35;8.20;99.90
4701;DHT22;8724;51.272;6.554;2022-11-20T01:34:06;7.90;99.90
4701;DHT22;8724;51.272;6.554;2022-11-20T01:36:36;7.90;99.90
4701;DHT22;8724;51.272;6.554;2022-11-20T01:39:07;7.90;99.90
4701;DHT22;8724;51.272;6.554;2022-11-20T01:41:35;7.90;99.90
4701;DHT22;8724;51.272;6.554;2022-11-20T01:44:39;7.90;99.90
4701;DHT22;8724;51.272;6.554;2022-11-20T01:47:13;7.90;99.90
4701;DHT22;8724;51.272;6.554;2022-11-20T01:49:46;7.90;99.90
4701;DHT22;8724;51.272;6.554;2022-11-20T01:52:20;7.90;99.90
4701;DHT22;8724;51.272;6.554;2022-11-20T01:54:51;7.90;99.90
4701;DHT22;8724;51.272;6.554;2022-11-20T01:57:22;7.90;99.90
4701;DHT22;8724;51.272;6.554;2022-11-20T01:59:55;7.90;99.90
4701;DHT22;8724;51.272;6.554;2022-11-20T02:02:25;7.80;99.90
4701;DHT22;8724;51.272;6.554;2022-11-20T02:04:57;7.80;99.90
4701;DHT22;8724;51.272;6.554;2022-11-20T02:07:28;7.80;99.90
4701;DHT22;8724;51.272;6.554;2022-11-20T02:09:56;7.80;99.90
4701;DHT22;8724;51.272;6.554;2022-11-20T02:12:25;7.80;99.90
4701;DHT22;8724;51.272;6.554;2022-11-20T02:15:10;7.80;99.90
4701;DHT22;8724;51.272;6.554;2022-11-20T02:17:41;7.80;99.90
4701;DHT22;8724;51.272;6.554;2022-11-20T02:20:10;7.80;99.90
4701;DHT22;8724;51.272;6.554;2022-11-20T02:22:48;7.80;99.90
4701;DHT22;8724;51.272;6.554;2022-11-20T02:25:21;7.80;99.90
4701;DHT22;8724;51.272;6.554;2022-11-20T02:27:50;7.70;99.90
4701;DHT22;8724;51.272;6.554;2022-11-20T02:30:19;7.70;99.90
4701;DHT22;8724;51.272;6.554;2022-11-20T02:32:47;7.70;99.90
4701;DHT22;8724;51.272;6.554;2022-11-20T02:35:40;7.70;99.90
4701;DHT22;8724;51.272;6.554;2022-11-20T02:38:09;7.70;99.90
4701;DHT22;8724;51.272;6.554;2022-11-20T02:40:39;7.80;99.90
4701;DHT22;8724;51.272;6.554;2022-11-20T02:43:08;7.60;99.90
4701;DHT22;8724;51.272;6.554;2022-11-20T02:45:37;7.60;99.90
4701;DHT22;8724;51.272;6.554;2022-11-20T02:48:06;7.60;99.90
4701;DHT22;8724;51.272;6.554;2022-11-20T02:50:37;7.60;99.90
4701;DHT22;8724;51.272;6.554;2022-11-20T02:53:06;7.60;99.90
4701;DHT22;8724;51.272;6.554;2022-11-20T02:55:35;7.50;99.90
4701;DHT22;8724;51.272;6.554;2022-11-20T02:58:05;7.50;99.90
4701;DHT22;8724;51.272;6.554;2022-11-20T03:00:36;7.50;99.90
4701;DHT22;8724;51.272;6.554;2022-11-20T03:03:04;7.50;99.90
4701;DHT22;8724;51.272;6.554;2022-11-20T03:05:32;7.40;99.90
4701;DHT22;8724;51.272;6.554;2022-11-20T03:08:00;7.50;99.90
4701;DHT22;8724;51.272;6.554;2022-11-20T03:10:29;7.40;99.90
4701;DHT22;8724;51.272;6.554;2022-11-20T03:12:57;7.40;99.90
4701;DHT22;8724;51.272;6.554;2022-11-20T03:15:27;7.40;99.90
4701;DHT22;8724;51.272;6.554;2022-11-20T03:17:55;7.40;99.90
4701;DHT22;8724;51.272;6.554;2022-11-20T03:20:25;7.40;99.90
4701;DHT22;8724;51.272;6.554;2022-11-20T03:22:54;7.30;99.90
4701;DHT22;8724;51.272;6.554;2022-11-20T03:25:25;7.30;99.90
4701;DHT22;8724;51.272;6.554;2022-11-20T03:27:54;7.30;99.90
4701;DHT22;8724;51.272;6.554;2022-11-20T03:30:22;7.30;99.90
4701;DHT22;8724;51.272;6.554;2022-11-20T03:32:57;7.30;99.90
4701;DHT22;8724;51.272;6.554;2022-11-20T03:35:26;7.20;99.90
4701;DHT22;8724;51.272;6.554;2022-11-20T03:37:54;7.20;99.90
4701;DHT22;8724;51.272;6.554;2022-11-20T03:40:22;7.20;99.90
4701;DHT22;8724;51.272;6.554;2022-11-20T03:42:51;7.10;99.90
4701;DHT22;8724;51.272;6.554;2022-11-20T03:45:19;7.00;99.90
4701;DHT22;8724;51.272;6.554;2022-11-20T03:47:47;7.00;99.90
4701;DHT22;8724;51.272;6.554;2022-11-20T03:50:17;6.80;99.90
4701;DHT22;8724;51.272;6.554;2022-11-20T03:52:45;6.70;99.90
4701;DHT22;8724;51.272;6.554;2022-11-20T03:55:14;6.70;99.90
4701;DHT22;8724;51.272;6.554;2022-11-20T03:57:42;6.70;99.90
4701;DHT22;8724;51.272;6.554;2022-11-20T04:00:11;6.60;99.90
4701;DHT22;8724;51.272;6.554;2022-11-20T04:02:40;6.50;99.90
4701;DHT22;8724;51.272;6.554;2022-11-20T04:05:10;6.50;99.90
4701;DHT22;8724;51.272;6.554;2022-11-20T04:07:42;6.50;99.90
4701;DHT22;8724;51.272;6.554;2022-11-20T04:10:10;6.70;99.90
4701;DHT22;8724;51.272;6.554;2022-11-20T04:12:38;6.50;99.90
4701;DHT22;8724;51.272;6.554;2022-11-20T04:15:07;6.50;99.90
4701;DHT22;8724;51.272;6.554;2022-11-20T04:17:37;6.50;99.90
4701;DHT22;8724;51.272;6.554;2022-11-20T04:20:07;6.70;99.90
4701;DHT22;8724;51.272;6.554;2022-11-20T04:22:35;6.50;99.90
4701;DHT22;8724;51.272;6.554;2022-11-20T04:25:05;6.50;99.90
4701;DHT22;8724;51.272;6.554;2022-11-20T04:27:33;6.60;99.90
4701;DHT22;8724;51.272;6.554;2022-11-20T04:30:02;6.60;99.90
4701;DHT22;8724;51.272;6.554;2022-11-20T04:32:30;6.60;99.90
4701;DHT22;8724;51.272;6.554;2022-11-20T04:34:58;6.60;99.90
4701;DHT22;8724;51.272;6.554;2022-11-20T04:37:27;6.70;99.90
4701;DHT22;8724;51.272;6.554;2022-11-20T04:39:58;6.70;99.90
4701;DHT22;8724;51.272;6.554;2022-11-20T04:42:27;6.70;99.90
4701;DHT22;8724;51.272;6.554;2022-11-20T04:44:58;6.70;99.90
4701;DHT22;8724;51.272;6.554;2022-11-20T04:47:26;6.70;99.90
4701;DHT22;8724;51.272;6.554;2022-11-20T04:49:56;6.70;99.90
4701;DHT22;8724;51.272;6.554;2022-11-20T04:52:25;6.70;99.90
4701;DHT22;8724;51.272;6.554;2022-11-20T04:54:53;6.70;99.90
4701;DHT22;8724;51.272;6.554;2022-11-20T04:57:23;6.80;99.90
4701;DHT22;8724;51.272;6.554;2022-11-20T04:59:53;6.80;99.90
4701;DHT22;8724;51.272;6.554;2022-11-20T05:02:24;6.80;99.90
4701;DHT22;8724;51.272;6.554;2022-11-20T05:04:53;6.90;99.90
4701;DHT22;8724;51.272;6.554;2022-11-20T05:07:21;6.80;99.90
4701;DHT22;8724;51.272;6.554;2022-11-20T05:09:49;6.80;99.90
4701;DHT22;8724;51.272;6.554;2022-11-20T05:12:17;6.80;99.90
4701;DHT22;8724;51.272;6.554;2022-11-20T05:14:45;6.80;99.90
4701;DHT22;8724;51.272;6.554;2022-11-20T05:17:15;6.80;99.90
4701;DHT22;8724;51.272;6.554;2022-11-20T05:19:46;6.90;99.90
4701;DHT22;8724;51.272;6.554;2022-11-20T05:22:19;6.90;99.90
4701;DHT22;8724;51.272;6.554;2022-11-20T05:24:49;6.90;99.90
4701;DHT22;8724;51.272;6.554;2022-11-20T05:27:19;6.90;99.90
4701;DHT22;8724;51.272;6.554;2022-11-20T05:29:47;6.90;99.90
4701;DHT22;8724;51.272;6.554;2022-11-20T05:32:20;6.90;99.90
4701;DHT22;8724;51.272;6.554;2022-11-20T05:34:52;7.00;99.90
4701;DHT22;8724;51.272;6.554;2022-11-20T05:37:20;7.00;99.90
4701;DHT22;8724;51.272;6.554;2022-11-20T05:39:48;7.00;99.90
4701;DHT22;8724;51.272;6.554;2022-11-20T05:42:16;7.00;99.90
4701;DHT22;8724;51.272;6.554;2022-11-20T05:45:01;7.00;99.90
4701;DHT22;8724;51.272;6.554;2022-11-20T05:47:33;7.00;99.90
4701;DHT22;8724;51.272;6.554;2022-11-20T05:50:02;7.00;99.90
4701;DHT22;8724;51.272;6.554;2022-11-20T05:52:30;7.00;99.90
4701;DHT22;8724;51.272;6.554;2022-11-20T05:54:58;7.00;99.90
4701;DHT22;8724;51.272;6.554;2022-11-20T05:57:26;7.00;99.90
4701;DHT22;8724;51.272;6.554;2022-11-20T05:59:55;7.00;99.90
4701;DHT22;8724;51.272;6.554;2022-11-20T06:02:28;7.00;99.90
4701;DHT22;8724;51.272;6.554;2022-11-20T06:04:58;7.00;99.90
4701;DHT22;8724;51.272;6.554;2022-11-20T06:07:29;7.00;99.90
4701;DHT22;8724;51.272;6.554;2022-11-20T06:09:58;7.00;99.90
4701;DHT22;8724;51.272;6.554;2022-11-20T06:12:30;7.00;99.90
4701;DHT22;8724;51.272;6.554;2022-11-20T06:15:01;7.00;99.90
4701;DHT22;8724;51.272;6.554;2022-11-20T06:17:29;7.00;99.90
4701;DHT22;8724;51.272;6.554;2022-11-20T06:19:59;7.00;99.90
4701;DHT22;8724;51.272;6.554;2022-11-20T06:22:27;7.00;99.90
4701;DHT22;8724;51.272;6.554;2022-11-20T06:24:56;7.00;99.90
4701;DHT22;8724;51.272;6.554;2022-11-20T06:27:27;7.10;99.90
4701;DHT22;8724;51.272;6.554;2022-11-20T06:29:55;7.10;99.90
4701;DHT22;8724;51.272;6.554;2022-11-20T06:32:23;7.10;99.90
4701;DHT22;8724;51.272;6.554;2022-11-20T06:34:51;7.10;99.90
4701;DHT22;8724;51.272;6.554;2022-11-20T06:37:21;7.10;99.90
4701;DHT22;8724;51.272;6.554;2022-11-20T06:39:49;7.10;99.90
4701;DHT22;8724;51.272;6.554;2022-11-20T06:42:17;7.10;99.90
4701;DHT22;8724;51.272;6.554;2022-11-20T06:44:48;7.10;99.90
4701;DHT22;8724;51.272;6.554;2022-11-20T06:47:16;7.10;99.90
4701;DHT22;8724;51.272;6.554;2022-11-20T06:49:44;7.10;99.90
4701;DHT22;8724;51.272;6.554;2022-11-20T06:52:13;7.10;99.90
4701;DHT22;8724;51.272;6.554;2022-11-20T06:54:43;7.10;99.90
4701;DHT22;8724;51.272;6.554;2022-11-20T06:57:11;7.10;99.90
4701;DHT22;8724;51.272;6.554;2022-11-20T06:59:40;7.10;99.90
4701;DHT22;8724;51.272;6.554;2022-11-20T07:02:09;7.10;99.90
4701;DHT22;8724;51.272;6.554;2022-11-20T07:04:38;7.10;99.90
4701;DHT22;8724;51.272;6.554;2022-11-20T07:07:06;7.10;99.90
4701;DHT22;8724;51.272;6.554;2022-11-20T07:09:35;6.80;99.90
4701;DHT22;8724;51.272;6.554;2022-11-20T07:12:05;7.10;99.90
4701;DHT22;8724;51.272;6.554;2022-11-20T07:14:33;7.10;99.90
4701;DHT22;8724;51.272;6.554;2022-11-20T07:17:01;7.10;99.90
4701;DHT22;8724;51.272;6.554;2022-11-20T07:19:29;7.10;99.90
4701;DHT22;8724;51.272;6.554;2022-11-20T07:21:58;7.10;99.90
4701;DHT22;8724;51.272;6.554;2022-11-20T07:24:26;7.00;99.90
4701;DHT22;8724;51.272;6.554;2022-11-20T07:26:54;7.10;99.90
4701;DHT22;8724;51.272;6.554;2022-11-20T07:29:24;7.00;99.90
4701;DHT22;8724;51.272;6.554;2022-11-20T07:31:52;7.10;99.90
4701;DHT22;8724;51.272;6.554;2022-11-20T07:34:22;7.00;99.90
4701;DHT22;8724;51.272;6.554;2022-11-20T07:36:52;7.10;99.90
4701;DHT22;8724;51.272;6.554;2022-11-20T07:39:20;7.00;99.90
4701;DHT22;8724;51.272;6.554;2022-11-20T07:41:49;7.10;99.90
4701;DHT22;8724;51.272;6.554;2022-11-20T07:44:17;7.10;99.90
4701;DHT22;8724;51.272;6.554;2022-11-20T07:46:47;7.10;99.90
4701;DHT22;8724;51.272;6.554;2022-11-20T07:49:15;7.10;99.90
4701;DHT22;8724;51.272;6.554;2022-11-20T07:51:43;7.10;99.90
4701;DHT22;8724;51.272;6.554;2022-11-20T07:54:17;7.10;99.90
4701;DHT22;8724;51.272;6.554;2022-11-20T07:56:46;7.10;99.90
4701;DHT22;8724;51.272;6.554;2022-11-20T07:59:14;7.10;99.90
4701;DHT22;8724;51.272;6.554;2022-11-20T08:01:43;7.10;99.90
4701;DHT22;8724;51.272;6.554;2022-11-20T08:04:13;7.40;99.90
4701;DHT22;8724;51.272;6.554;2022-11-20T08:06:43;7.10;99.90
4701;DHT22;8724;51.272;6.554;2022-11-20T08:09:11;7.10;99.90
4701;DHT22;8724;51.272;6.554;2022-11-20T08:11:39;7.10;99.90
4701;DHT22;8724;51.272;6.554;2022-11-20T08:14:25;7.20;99.90
4701;DHT22;8724;51.272;6.554;2022-11-20T08:16:56;7.20;99.90
4701;DHT22;8724;51.272;6.554;2022-11-20T08:19:26;7.20;99.90
4701;DHT22;8724;51.272;6.554;2022-11-20T08:21:55;7.50;99.90
4701;DHT22;8724;51.272;6.554;2022-11-20T08:24:23;7.20;99.90
4701;DHT22;8724;51.272;6.554;2022-11-20T08:26:53;7.20;99.90
4701;DHT22;8724;51.272;6.554;2022-11-20T08:29:21;7.20;99.90
4701;DHT22;8724;51.272;6.554;2022-11-20T08:31:50;7.30;99.90
4701;DHT22;8724;51.272;6.554;2022-11-20T08:34:18;7.30;99.90
4701;DHT22;8724;51.272;6.554;2022-11-20T08:36:48;7.30;99.90
4701;DHT22;8724;51.272;6.554;2022-11-20T08:39:16;7.30;99.90
4701;DHT22;8724;51.272;6.554;2022-11-20T08:41:44;7.30;99.90
4701;DHT22;8724;51.272;6.554;2022-11-20T08:44:13;7.30;99.90
4701;DHT22;8724;51.272;6.554;2022-11-20T08:46:42;7.30;99.90
4701;DHT22;8724;51.272;6.554;2022-11-20T08:49:13;7.30;99.90
4701;DHT22;8724;51.272;6.554;2022-11-20T08:51:42;7.30;99.90
4701;DHT22;8724;51.272;6.554;2022-11-20T08:54:12;7.40;99.90
4701;DHT22;8724;51.272;6.554;2022-11-20T08:56:40;7.40;99.90
4701;DHT22;8724;51.272;6.554;2022-11-20T08:59:13;7.40;99.90
4701;DHT22;8724;51.272;6.554;2022-11-20T09:02:03;7.40;99.90
4701;DHT22;8724;51.272;6.554;2022-11-20T09:04:31;7.40;99.90
4701;DHT22;8724;51.272;6.554;2022-11-20T09:07:00;7.40;99.90
4701;DHT22;8724;51.272;6.554;2022-11-20T09:09:30;7.40;99.90
4701;DHT22;8724;51.272;6.554;2022-11-20T09:12:00;7.40;99.90
4701;DHT22;8724;51.272;6.554;2022-11-20T09:14:28;7.50;99.90
4701;DHT22;8724;51.272;6.554;2022-11-20T09:16:57;7.50;99.90
4701;DHT22;8724;51.272;6.554;2022-11-20T09:19:25;7.50;99.90
4701;DHT22;8724;51.272;6.554;2022-11-20T09:22:06;7.50;99.90
4701;DHT22;8724;51.272;6.554;2022-11-20T09:24:36;7.50;99.90
4701;DHT22;8724;51.272;6.554;2022-11-20T09:27:07;7.50;99.90
4701;DHT22;8724;51.272;6.554;2022-11-20T09:29:41;7.50;99.90
4701;DHT22;8724;51.272;6.554;2022-11-20T09:32:09;7.60;99.90
4701;DHT22;8724;51.272;6.554;2022-11-20T09:34:37;7.60;99.90
4701;DHT22;8724;51.272;6.554;2022-11-20T09:37:05;7.60;99.90
4701;DHT22;8724;51.272;6.554;2022-11-20T09:39:34;7.60;99.90
4701;DHT22;8724;51.272;6.554;2022-11-20T09:42:25;7.60;99.90
4701;DHT22;8724;51.272;6.554;2022-11-20T09:45:06;7.70;99.90
4701;DHT22;8724;51.272;6.554;2022-11-20T09:47:51;7.70;99.90
4701;DHT22;8724;51.272;6.554;2022-11-20T09:50:27;7.90;99.90
4701;DHT22;8724;51.272;6.554;2022-11-20T09:53:06;7.70;99.90
4701;DHT22;8724;51.272;6.554;2022-11-20T09:55:40;7.70;99.90
4701;DHT22;8724;51.272;6.554;2022-11-20T09:58:16;7.70;99.90
4701;DHT22;8724;51.272;6.554;2022-11-20T10:00:49;7.70;99.90
4701;DHT22;8724;51.272;6.554;2022-11-20T10:03:25;7.70;99.90
4701;DHT22;8724;51.272;6.554;2022-11-20T10:06:00;7.70;99.90
4701;DHT22;8724;51.272;6.554;2022-11-20T10:08:33;7.70;99.90
4701;DHT22;8724;51.272;6.554;2022-11-20T10:11:11;7.70;99.90
4701;DHT22;8724;51.272;6.554;2022-11-20T10:13:51;7.70;99.90
4701;DHT22;8724;51.272;6.554;2022-11-20T10:16:28;7.70;99.90
4701;DHT22;8724;51.272;6.554;2022-11-20T10:19:06;7.70;99.90
4701;DHT22;8724;51.272;6.554;2022-11-20T10:21:46;8.10;99.90
4701;DHT22;8724;51.272;6.554;2022-11-20T10:24:41;7.70;99.90
4701;DHT22;8724;51.272;6.554;2022-11-20T10:27:26;7.70;99.90
4701;DHT22;8724;51.272;6.554;2022-11-20T10:30:01;7.70;99.90
4701;DHT22;8724;51.272;6.554;2022-11-20T10:32:36;7.80;99.90
4701;DHT22;8724;51.272;6.554;2022-11-20T10:35:15;7.70;99.90
4701;DHT22;8724;51.272;6.554;2022-11-20T10:37:45;7.80;99.90
4701;DHT22;8724;51.272;6.554;2022-11-20T10:40:22;7.80;99.90
4701;DHT22;8724;51.272;6.554;2022-11-20T10:42:55;7.80;99.90
4701;DHT22;8724;51.272;6.554;2022-11-20T10:45:44;7.80;99.90
4701;DHT22;8724;51.272;6.554;2022-11-20T10:48:19;7.80;99.90
4701;DHT22;8724;51.272;6.554;2022-11-20T10:50:57;7.80;99.90
4701;DHT22;8724;51.272;6.554;2022-11-20T10:53:42;7.80;99.90
4701;DHT22;8724;51.272;6.554;2022-11-20T10:56:17;7.90;99.90
4701;DHT22;8724;51.272;6.554;2022-11-20T10:58:56;7.90;99.90
4701;DHT22;8724;51.272;6.554;2022-11-20T11:01:29;7.90;99.90
4701;DHT22;8724;51.272;6.554;2022-11-20T11:03:58;7.90;99.90
4701;DHT22;8724;51.272;6.554;2022-11-20T11:06:32;7.90;99.90
4701;DHT22;8724;51.272;6.554;2022-11-20T11:09:10;7.90;99.90
4701;DHT22;8724;51.272;6.554;2022-11-20T11:11:39;8.00;99.90
4701;DHT22;8724;51.272;6.554;2022-11-20T11:14:11;8.00;99.90
4701;DHT22;8724;51.272;6.554;2022-11-20T11:16:51;8.00;99.90
4701;DHT22;8724;51.272;6.554;2022-11-20T11:19:20;8.00;99.90
4701;DHT22;8724;51.272;6.554;2022-11-20T11:21:52;8.00;99.90
4701;DHT22;8724;51.272;6.554;2022-11-20T11:24:23;8.00;99.90
4701;DHT22;8724;51.272;6.554;2022-11-20T11:27:12;8.00;99.90
4701;DHT22;8724;51.272;6.554;2022-11-20T11:29:46;8.10;99.90
4701;DHT22;8724;51.272;6.554;2022-11-20T11:32:19;8.30;99.90
4701;DHT22;8724;51.272;6.554;2022-11-20T11:34:59;8.00;99.90
4701;DHT22;8724;51.272;6.554;2022-11-20T11:37:34;8.00;99.90
4701;DHT22;8724;51.272;6.554;2022-11-20T11:40:05;8.10;99.90
4701;DHT22;8724;51.272;6.554;2022-11-20T11:42:54;8.10;99.90
4701;DHT22;8724;51.272;6.554;2022-11-20T11:45:24;8.10;99.90
4701;DHT22;8724;51.272;6.554;2022-11-20T11:48:03;8.10;99.90
4701;DHT22;8724;51.272;6.554;2022-11-20T11:50:32;8.10;99.90
4701;DHT22;8724;51.272;6.554;2022-11-20T11:53:08;8.10;99.90
4701;DHT22;8724;51.272;6.554;2022-11-20T11:55:43;8.20;99.90
4701;DHT22;8724;51.272;6.554;2022-11-20T11:58:19;8.10;99.90
4701;DHT22;8724;51.272;6.554;2022-11-20T12:00:53;8.20;99.90
4701;DHT22;8724;51.272;6.554;2022-11-20T12:03:27;8.20;99.90
4701;DHT22;8724;51.272;6.554;2022-11-20T12:05:59;8.30;99.90
4701;DHT22;8724;51.272;6.554;2022-11-20T12:08:32;8.20;99.90
4701;DHT22;8724;51.272;6.554;2022-11-20T12:11:12;8.20;99.90
4701;DHT22;8724;51.272;6.554;2022-11-20T12:13:47;8.20;99.90
4701;DHT22;8724;51.272;6.554;2022-11-20T12:16:19;8.20;99.90
4701;DHT22;8724;51.272;6.554;2022-11-20T12:18:51;8.20;99.90
4701;DHT22;8724;51.272;6.554;2022-11-20T12:21:25;8.20;99.90
4701;DHT22;8724;51.272;6.554;2022-11-20T12:24:23;8.20;99.90
4701;DHT22;8724;51.272;6.554;2022-11-20T12:27:02;8.20;99.90
4701;DHT22;8724;51.272;6.554;2022-11-20T12:29:41;8.20;99.90
4701;DHT22;8724;51.272;6.554;2022-11-20T12:32:36;8.30;99.90
4701;DHT22;8724;51.272;6.554;2022-11-20T12:38:18;8.30;99.90
4701;DHT22;8724;51.272;6.554;2022-11-20T12:40:56;8.30;99.90
4701;DHT22;8724;51.272;6.554;2022-11-20T12:43:26;8.30;99.90
4701;DHT22;8724;51.272;6.554;2022-11-20T12:46:22;8.30;99.90
4701;DHT22;8724;51.272;6.554;2022-11-20T12:49:08;8.30;99.90
4701;DHT22;8724;51.272;6.554;2022-11-20T12:51:52;8.30;99.90
4701;DHT22;8724;51.272;6.554;2022-11-20T12:54:44;8.30;99.90
4701;DHT22;8724;51.272;6.554;2022-11-20T12:57:21;8.30;99.90
4701;DHT22;8724;51.272;6.554;2022-11-20T13:00:11;8.30;99.90
4701;DHT22;8724;51.272;6.554;2022-11-20T13:05:48;8.30;99.90
4701;DHT22;8724;51.272;6.554;2022-11-20T13:08:23;8.40;99.90
4701;DHT22;8724;51.272;6.554;2022-11-20T13:10:58;8.40;99.90
4701;DHT22;8724;51.272;6.554;2022-11-20T13:13:35;8.30;99.90
4701;DHT22;8724;51.272;6.554;2022-11-20T13:16:08;8.30;99.90
4701;DHT22;8724;51.272;6.554;2022-11-20T13:18:41;8.40;99.90
4701;DHT22;8724;51.272;6.554;2022-11-20T13:21:16;8.40;99.90
4701;DHT22;8724;51.272;6.554;2022-11-20T13:23:47;8.40;99.90
4701;DHT22;8724;51.272;6.554;2022-11-20T13:26:18;8.40;99.90
4701;DHT22;8724;51.272;6.554;2022-11-20T13:28:59;8.40;99.90
4701;DHT22;8724;51.272;6.554;2022-11-20T13:31:32;8.40;99.90
4701;DHT22;8724;51.272;6.554;2022-11-20T13:34:06;8.40;99.90
4701;DHT22;8724;51.272;6.554;2022-11-20T13:36:35;8.40;99.90
4701;DHT22;8724;51.272;6.554;2022-11-20T13:39:04;8.40;99.90
4701;DHT22;8724;51.272;6.554;2022-11-20T13:41:35;8.40;99.90
4701;DHT22;8724;51.272;6.554;2022-11-20T13:44:10;8.40;99.90
4701;DHT22;8724;51.272;6.554;2022-11-20T13:46:43;8.40;99.90
4701;DHT22;8724;51.272;6.554;2022-11-20T13:49:20;8.40;99.90
4701;DHT22;8724;51.272;6.554;2022-11-20T13:51:51;8.40;99.90
4701;DHT22;8724;51.272;6.554;2022-11-20T13:54:50;8.40;99.90
4701;DHT22;8724;51.272;6.554;2022-11-20T13:57:40;8.40;99.90
4701;DHT22;8724;51.272;6.554;2022-11-20T14:00:14;8.50;99.90
4701;DHT22;8724;51.272;6.554;2022-11-20T14:02:44;8.50;99.90
4701;DHT22;8724;51.272;6.554;2022-11-20T14:05:20;8.70;99.90
4701;DHT22;8724;51.272;6.554;2022-11-20T14:07:50;8.40;99.90
4701;DHT22;8724;51.272;6.554;2022-11-20T14:10:22;8.50;99.90
4701;DHT22;8724;51.272;6.554;2022-11-20T14:12:58;8.50;99.90
4701;DHT22;8724;51.272;6.554;2022-11-20T14:15:29;8.50;99.90
4701;DHT22;8724;51.272;6.554;2022-11-20T14:17:58;8.50;99.90
4701;DHT22;8724;51.272;6.554;2022-11-20T14:20:29;8.50;99.90
4701;DHT22;8724;51.272;6.554;2022-11-20T14:22:58;8.50;99.90
4701;DHT22;8724;51.272;6.554;2022-11-20T14:25:31;8.50;99.90
4701;DHT22;8724;51.272;6.554;2022-11-20T14:28:01;8.50;99.90
4701;DHT22;8724;51.272;6.554;2022-11-20T14:30:38;8.50;99.90
4701;DHT22;8724;51.272;6.554;2022-11-20T14:33:11;8.50;99.90
4701;DHT22;8724;51.272;6.554;2022-11-20T14:35:44;8.50;99.90
4701;DHT22;8724;51.272;6.554;2022-11-20T14:38:15;8.50;99.90
4701;DHT22;8724;51.272;6.554;2022-11-20T14:40:45;8.50;99.90
4701;DHT22;8724;51.272;6.554;2022-11-20T14:43:19;8.50;99.90
4701;DHT22;8724;51.272;6.554;2022-11-20T14:45:54;8.60;99.90
4701;DHT22;8724;51.272;6.554;2022-11-20T14:48:29;8.60;99.90
4701;DHT22;8724;51.272;6.554;2022-11-20T14:50:58;8.60;99.90
4701;DHT22;8724;51.272;6.554;2022-11-20T14:53:26;8.60;99.90
4701;DHT22;8724;51.272;6.554;2022-11-20T14:55:58;8.60;99.90
4701;DHT22;8724;51.272;6.554;2022-11-20T14:58:28;8.60;99.90
4701;DHT22;8724;51.272;6.554;2022-11-20T15:00:59;8.60;99.90
4701;DHT22;8724;51.272;6.554;2022-11-20T15:03:34;8.60;99.90
4701;DHT22;8724;51.272;6.554;2022-11-20T15:06:03;8.60;99.90
4701;DHT22;8724;51.272;6.554;2022-11-20T15:08:32;8.60;99.90
4701;DHT22;8724;51.272;6.554;2022-11-20T15:11:02;8.60;99.90
4701;DHT22;8724;51.272;6.554;2022-11-20T15:13:32;8.60;99.90
4701;DHT22;8724;51.272;6.554;2022-11-20T15:16:02;8.60;99.90
4701;DHT22;8724;51.272;6.554;2022-11-20T15:18:32;8.60;99.90
4701;DHT22;8724;51.272;6.554;2022-11-20T15:21:02;8.60;99.90
4701;DHT22;8724;51.272;6.554;2022-11-20T15:23:32;8.60;99.90
4701;DHT22;8724;51.272;6.554;2022-11-20T15:26:03;8.60;99.90
4701;DHT22;8724;51.272;6.554;2022-11-20T15:28:34;8.60;99.90
4701;DHT22;8724;51.272;6.554;2022-11-20T15:31:05;8.60;99.90
4701;DHT22;8724;51.272;6.554;2022-11-20T15:33:33;8.60;99.90
4701;DHT22;8724;51.272;6.554;2022-11-20T15:36:02;8.60;99.90
4701;DHT22;8724;51.272;6.554;2022-11-20T15:38:30;8.60;99.90
4701;DHT22;8724;51.272;6.554;2022-11-20T15:40:58;8.60;99.90
4701;DHT22;8724;51.272;6.554;2022-11-20T15:43:28;8.60;99.90
4701;DHT22;8724;51.272;6.554;2022-11-20T15:45:59;8.60;99.90
4701;DHT22;8724;51.272;6.554;2022-11-20T15:48:31;8.60;99.90
4701;DHT22;8724;51.272;6.554;2022-11-20T15:51:02;8.90;99.90
4701;DHT22;8724;51.272;6.554;2022-11-20T15:53:31;8.60;99.90
4701;DHT22;8724;51.272;6.554;2022-11-20T15:55:59;8.60;99.90
4701;DHT22;8724;51.272;6.554;2022-11-20T15:58:30;8.50;99.90
4701;DHT22;8724;51.272;6.554;2022-11-20T16:00:58;8.60;99.90
4701;DHT22;8724;51.272;6.554;2022-11-20T16:03:27;8.50;99.90
4701;DHT22;8724;51.272;6.554;2022-11-20T16:05:55;8.60;99.90
4701;DHT22;8724;51.272;6.554;2022-11-20T16:08:23;8.60;99.90
4701;DHT22;8724;51.272;6.554;2022-11-20T16:10:52;8.60;99.90
4701;DHT22;8724;51.272;6.554;2022-11-20T16:13:20;8.60;99.90
4701;DHT22;8724;51.272;6.554;2022-11-20T16:16:19;8.60;99.90
4701;DHT22;8724;51.272;6.554;2022-11-20T16:18:48;8.60;99.90
4701;DHT22;8724;51.272;6.554;2022-11-20T16:21:17;8.60;99.90
4701;DHT22;8724;51.272;6.554;2022-11-20T16:23:45;8.60;99.90
4701;DHT22;8724;51.272;6.554;2022-11-20T16:26:15;8.60;99.90
4701;DHT22;8724;51.272;6.554;2022-11-20T16:28:45;8.60;99.90
4701;DHT22;8724;51.272;6.554;2022-11-20T16:31:19;8.60;99.90
4701;DHT22;8724;51.272;6.554;2022-11-20T16:33:49;8.60;99.90
4701;DHT22;8724;51.272;6.554;2022-11-20T16:36:21;8.60;99.90
4701;DHT22;8724;51.272;6.554;2022-11-20T16:38:52;8.60;99.90
4701;DHT22;8724;51.272;6.554;2022-11-20T16:41:23;8.60;99.90
4701;DHT22;8724;51.272;6.554;2022-11-20T16:43:53;8.60;99.90
4701;DHT22;8724;51.272;6.554;2022-11-20T16:46:26;8.60;99.90
4701;DHT22;8724;51.272;6.554;2022-11-20T16:48:56;8.60;99.90
4701;DHT22;8724;51.272;6.554;2022-11-20T16:51:27;8.60;99.90
4701;DHT22;8724;51.272;6.554;2022-11-20T16:54:01;8.60;99.90